Terminal Aerodrome Forecast
Issued by NWS Mt. Holly, NJ

Home | Current Version | Previous Version | Text Only | Print | Product List | Glossary On
Versions: 1 2 3 4 5 6 7 8 9 10 11 12 13 14 15 16 17 18 19 20 21 22 23 24 25
000
FTUS41 KPHI 311000 AAA
TAFACY
TAF AMD
KACY 311000Z 3110/0106 00000KT 1SM BR SCT002 OVC050
      TEMPO 3110/3112 1/4SM FG BKN002
     FM311500 00000KT 4SM BR BKN004
     FM311800 32004KT P6SM FEW040
     FM312000 16006KT P6SM FEW040=

USA.gov is the U.S. government's official web portal to all federal, state and local government web resources and services.